Time;durP1;ratioP1;P1;durP2;ratioP2;P2;SDS_P1;SDS_P2;PMS_P1;PMS_P2;Temp;Humidity;BMP_temperature;BMP_pressure;BME280_temperature;BME280_humidity;BME280_pressure;Samples;Min_cycle;Max_cycle;Signal;HPM_P1;HPM_P2
2022/09/14 00:01:39;;;;;;;3.63;1.10;;;12.40;99.90;;;;;;5035619;28;20054;-67
2022/09/14 00:04:10;;;;;;;4.95;1.10;;;12.40;99.90;;;;;;4998065;28;20506;-67
2022/09/14 00:06:36;;;;;;;5.03;1.20;;;12.50;99.90;;;;;;5005915;28;20042;-67
2022/09/14 00:09:05;;;;;;;3.60;1.10;;;12.40;99.90;;;;;;5028276;28;20366;-67
2022/09/14 00:11:33;;;;;;;5.18;1.20;;;12.40;99.90;;;;;;4993250;28;20509;-67
2022/09/14 00:14:00;;;;;;;2.92;1.00;;;12.40;99.90;;;;;;4998013;28;20030;-67
2022/09/14 00:16:40;;;;;;;3.60;1.10;;;12.30;99.90;;;;;;5039077;28;20409;-67
2022/09/14 00:19:18;;;;;;;5.90;1.10;;;12.40;99.90;;;;;;4995496;28;20057;-67
2022/09/14 00:21:44;;;;;;;6.72;1.20;;;12.30;99.90;;;;;;5038803;28;20108;-67
2022/09/14 00:24:10;;;;;;;5.07;1.35;;;12.30;99.90;;;;;;5001015;28;20034;-67
2022/09/14 00:26:37;;;;;;;4.78;1.45;;;12.40;99.90;;;;;;5034476;28;20500;-67
2022/09/14 00:29:04;;;;;;;4.57;1.58;;;12.30;99.90;;;;;;5001454;28;20038;-67
2022/09/14 00:31:31;;;;;;;5.07;1.67;;;12.30;99.90;;;;;;5004531;28;20081;-67
2022/09/14 00:33:57;;;;;;;6.43;1.45;;;12.40;99.90;;;;;;5002128;28;20109;-67
2022/09/14 00:36:26;;;;;;;3.33;1.20;;;12.30;99.90;;;;;;5043101;28;20179;-68
2022/09/14 00:38:56;;;;;;;4.63;1.33;;;12.40;99.90;;;;;;5037181;28;20077;-68
2022/09/14 00:41:31;;;;;;;5.88;1.65;;;12.30;99.90;;;;;;5003125;28;20038;-67
2022/09/14 00:44:11;;;;;;;3.63;1.25;;;12.30;99.90;;;;;;5005174;28;20049;-67
2022/09/14 00:46:42;;;;;;;6.80;1.50;;;12.40;99.90;;;;;;5036955;28;20325;-67
2022/09/14 00:49:11;;;;;;;3.20;1.40;;;12.40;99.90;;;;;;5002104;28;20049;-67
2022/09/14 00:51:42;;;;;;;4.00;1.25;;;12.30;99.90;;;;;;5007082;28;20076;-67
2022/09/14 00:54:08;;;;;;;5.28;1.85;;;12.40;99.90;;;;;;5002394;28;20081;-67
2022/09/14 00:56:34;;;;;;;6.75;1.80;;;12.40;99.90;;;;;;5005845;28;20269;-68
2022/09/14 00:59:15;;;;;;;5.65;1.80;;;12.40;99.90;;;;;;5034268;28;20038;-68
2022/09/14 01:01:41;;;;;;;3.85;1.95;;;12.50;99.90;;;;;;5050892;28;20453;-68
2022/09/14 01:04:06;;;;;;;10.07;2.20;;;12.50;99.90;;;;;;5048965;28;20138;-68
2022/09/14 01:06:52;;;;;;;5.53;2.10;;;12.50;99.90;;;;;;5036958;28;20057;-68
2022/09/14 01:09:32;;;;;;;7.40;2.47;;;12.50;99.90;;;;;;5021029;28;20064;-68
2022/09/14 01:12:01;;;;;;;3.70;1.92;;;12.50;99.90;;;;;;5058839;28;20057;-67
2022/09/14 01:14:47;;;;;;;5.22;2.00;;;12.50;99.90;;;;;;5019702;28;20389;-68
2022/09/14 01:17:34;;;;;;;7.82;2.10;;;12.50;99.90;;;;;;5025871;28;20049;-68
2022/09/14 01:20:10;;;;;;;5.78;2.70;;;12.50;99.90;;;;;;5035265;28;20410;-68
2022/09/14 01:22:48;;;;;;;4.22;2.15;;;12.50;99.90;;;;;;5020215;28;20044;-68
2022/09/14 01:25:41;;;;;;;4.82;2.15;;;12.50;99.90;;;;;;5019793;28;20072;-68
2022/09/14 01:28:39;;;;;;;6.75;2.05;;;12.40;99.90;;;;;;5057205;28;20486;-67
2022/09/14 01:31:12;;;;;;;8.27;2.28;;;12.40;99.90;;;;;;5012401;28;20416;-68
2022/09/14 01:33:45;;;;;;;6.05;2.38;;;12.40;99.90;;;;;;5054629;28;20052;-68
2022/09/14 01:36:13;;;;;;;5.88;2.30;;;12.40;99.90;;;;;;5053256;28;20513;-68
2022/09/14 01:38:42;;;;;;;5.07;2.63;;;12.40;99.90;;;;;;5054718;28;20455;-68
2022/09/14 01:41:11;;;;;;;4.60;2.33;;;12.40;99.90;;;;;;5023617;28;20548;-67
2022/09/14 01:43:46;;;;;;;5.80;2.20;;;12.40;99.90;;;;;;5055169;28;20482;-68
2022/09/14 01:46:15;;;;;;;4.30;2.13;;;12.40;99.90;;;;;;5053091;28;20509;-68
2022/09/14 01:49:01;;;;;;;3.28;1.98;;;12.40;99.90;;;;;;5021183;28;20034;-68
2022/09/14 01:51:39;;;;;;;7.18;2.92;;;12.40;99.90;;;;;;5020067;28;20099;-68
2022/09/14 01:54:34;;;;;;;4.38;1.98;;;12.40;99.90;;;;;;5018131;28;20420;-68
2022/09/14 01:57:15;;;;;;;5.63;2.72;;;12.30;99.90;;;;;;5018730;28;20430;-68
2022/09/14 01:59:44;;;;;;;6.78;2.90;;;12.30;99.90;;;;;;5051018;28;20040;-68
2022/09/14 02:02:15;;;;;;;4.18;2.47;;;12.30;99.90;;;;;;5025965;28;20053;-67
2022/09/14 02:04:43;;;;;;;6.97;2.65;;;12.30;99.90;;;;;;5058958;28;20118;-67
2022/09/14 02:07:09;;;;;;;3.75;2.33;;;12.30;99.90;;;;;;5055876;28;20037;-67
2022/09/14 02:09:35;;;;;;;6.63;2.90;;;12.30;99.90;;;;;;5024584;28;20129;-68
2022/09/14 02:12:02;;;;;;;5.88;2.60;;;12.30;99.90;;;;;;5020728;28;20116;-68
2022/09/14 02:14:29;;;;;;;7.95;2.97;;;12.30;99.90;;;;;;5055869;28;20037;-68
2022/09/14 02:16:55;;;;;;;5.68;2.85;;;12.20;99.90;;;;;;5024723;28;20443;-68
2022/09/14 02:19:21;;;;;;;9.00;3.47;;;12.20;99.90;;;;;;5041130;28;20048;-67
2022/09/14 02:21:47;;;;;;;5.47;2.53;;;12.30;99.90;;;;;;5061428;28;20128;-68
2022/09/14 02:24:14;;;;;;;4.07;3.25;;;12.20;99.90;;;;;;5043364;28;20486;-68
2022/09/14 02:26:41;;;;;;;6.35;2.78;;;12.30;99.90;;;;;;5027152;28;20048;-67
2022/09/14 02:29:07;;;;;;;4.50;2.50;;;12.30;99.90;;;;;;5055036;28;20037;-67
2022/09/14 02:31:48;;;;;;;8.75;2.53;;;12.30;99.90;;;;;;5025603;28;20369;-67
2022/09/14 02:34:32;;;;;;;5.72;2.30;;;12.30;99.90;;;;;;5038154;28;20113;-68
2022/09/14 02:37:15;;;;;;;4.32;2.10;;;12.30;99.90;;;;;;5024351;28;20096;-68
2022/09/14 02:40:35;;;;;;;8.90;2.47;;;12.30;99.90;;;;;;5053697;28;20037;-68
2022/09/14 02:43:20;;;;;;;6.75;2.22;;;12.30;99.90;;;;;;4987711;28;20150;-67
2022/09/14 02:46:03;;;;;;;7.10;2.90;;;12.20;99.90;;;;;;5035197;28;20431;-67
2022/09/14 02:48:40;;;;;;;8.70;2.70;;;12.20;99.90;;;;;;5052645;28;20136;-68
2022/09/14 02:51:27;;;;;;;5.13;2.65;;;12.20;99.90;;;;;;5056179;28;20091;-67
2022/09/14 02:54:03;;;;;;;5.78;2.85;;;12.20;99.90;;;;;;5053389;28;20045;-67
2022/09/14 02:56:30;;;;;;;5.28;2.53;;;12.10;99.90;;;;;;5023951;28;20045;-68
2022/09/14 02:58:56;;;;;;;4.55;2.15;;;12.10;99.90;;;;;;5019903;28;20049;-68
2022/09/14 03:01:23;;;;;;;6.38;2.55;;;12.10;99.90;;;;;;5039120;28;20377;-68
2022/09/14 03:03:49;;;;;;;4.07;2.17;;;12.20;99.90;;;;;;5057472;28;20046;-68
2022/09/14 03:06:15;;;;;;;8.13;2.67;;;12.20;99.90;;;;;;5044111;28;20040;-68
2022/09/14 03:08:42;;;;;;;5.97;2.65;;;12.20;99.90;;;;;;5051416;28;20029;-68
2022/09/14 03:11:08;;;;;;;5.93;2.70;;;12.20;99.90;;;;;;5040761;28;20071;-68
2022/09/14 03:13:34;;;;;;;6.63;2.83;;;12.30;99.90;;;;;;5053565;28;20045;-67
2022/09/14 03:16:05;;;;;;;5.55;2.88;;;12.30;99.90;;;;;;5038758;28;20112;-67
2022/09/14 03:18:31;;;;;;;4.80;2.40;;;12.30;99.90;;;;;;5039499;28;20077;-67
2022/09/14 03:21:26;;;;;;;6.35;2.88;;;12.30;99.90;;;;;;5056289;28;20044;-68
2022/09/14 03:23:54;;;;;;;;;;;12.40;99.90;;;;;;5022799;28;20053;-67
2022/09/14 03:26:21;;;;;;;6.00;3.10;;;12.40;99.90;;;;;;5037783;28;20253;-68
2022/09/14 03:28:56;;;;;;;6.13;2.72;;;12.40;99.90;;;;;;5041656;28;20509;-67
2022/09/14 03:31:22;;;;;;;5.88;2.42;;;12.50;99.90;;;;;;5017328;28;20040;-68
2022/09/14 03:33:53;;;;;;;6.20;2.90;;;12.50;99.90;;;;;;5018251;28;20037;-68
2022/09/14 03:36:19;;;;;;;5.65;2.58;;;12.50;99.90;;;;;;5029745;28;20041;-67
2022/09/14 03:38:48;;;;;;;7.07;2.97;;;12.50;99.90;;;;;;5052968;28;20056;-68
2022/09/14 03:41:14;;;;;;;5.40;2.95;;;12.50;99.90;;;;;;5055185;28;20047;-68
2022/09/14 03:43:41;;;;;;;5.15;2.83;;;12.60;99.90;;;;;;5039074;28;20053;-67
2022/09/14 03:46:10;;;;;;;5.30;2.67;;;12.50;99.90;;;;;;5052604;28;20041;-68
2022/09/14 03:48:36;;;;;;;5.43;2.80;;;12.60;99.90;;;;;;5021674;28;20056;-68
2022/09/14 03:51:03;;;;;;;7.55;3.05;;;12.60;99.90;;;;;;5016709;28;20037;-67
2022/09/14 03:53:30;;;;;;;4.55;2.58;;;12.60;99.90;;;;;;5023234;28;20516;-68
2022/09/14 03:55:56;;;;;;;4.57;2.85;;;12.70;99.90;;;;;;5054378;28;20562;-67
2022/09/14 03:58:21;;;;;;;8.52;3.17;;;12.70;99.90;;;;;;5020399;28;20064;-67
2022/09/14 04:00:48;;;;;;;5.00;2.90;;;12.70;99.90;;;;;;5036199;28;20131;-68
2022/09/14 04:03:14;;;;;;;8.93;2.83;;;12.80;99.90;;;;;;5026371;28;20045;-68
2022/09/14 04:05:39;;;;;;;5.75;2.90;;;12.80;99.90;;;;;;5039420;28;20037;-68
2022/09/14 04:08:05;;;;;;;8.02;3.08;;;12.80;99.90;;;;;;5039538;28;20076;-68
2022/09/14 04:10:31;;;;;;;8.98;3.03;;;12.80;99.90;;;;;;5039503;28;20489;-68
2022/09/14 04:12:57;;;;;;;6.40;2.65;;;12.80;99.90;;;;;;5052961;28;20045;-68
2022/09/14 04:15:23;;;;;;;6.18;3.50;;;12.90;99.90;;;;;;5047941;28;20065;-68
2022/09/14 04:17:50;;;;;;;6.43;3.00;;;12.90;99.90;;;;;;5019099;28;20106;-69
2022/09/14 04:20:17;;;;;;;5.38;2.80;;;12.90;99.90;;;;;;5020935;28;20441;-68
2022/09/14 04:22:44;;;;;;;6.35;2.80;;;12.90;99.90;;;;;;5021390;28;20051;-68
2022/09/14 04:25:10;;;;;;;5.45;2.85;;;12.90;99.90;;;;;;5020252;28;20073;-67
2022/09/14 04:27:35;;;;;;;7.28;3.10;;;13.00;99.90;;;;;;5016484;28;20048;-67
2022/09/14 04:30:01;;;;;;;7.15;2.97;;;13.00;99.90;;;;;;5040852;28;20030;-68
2022/09/14 04:32:27;;;;;;;4.82;2.92;;;12.90;99.90;;;;;;5051221;28;20050;-68
2022/09/14 04:34:53;;;;;;;5.07;2.70;;;12.90;99.90;;;;;;5024362;28;20037;-68
2022/09/14 04:37:18;;;;;;;6.05;3.30;;;13.00;99.90;;;;;;5019181;28;20164;-68
2022/09/14 04:39:44;;;;;;;8.75;3.47;;;13.00;99.90;;;;;;5040769;28;20601;-68
2022/09/14 04:42:09;;;;;;;5.45;2.72;;;13.00;99.90;;;;;;5054165;28;20041;-68
2022/09/14 04:44:35;;;;;;;8.18;2.80;;;13.00;99.90;;;;;;5025460;28;20042;-68
2022/09/14 04:47:01;;;;;;;5.50;2.72;;;13.00;99.90;;;;;;5055507;28;20041;-68
2022/09/14 04:49:26;;;;;;;6.18;3.15;;;13.00;99.90;;;;;;5057585;28;20036;-68
2022/09/14 04:51:52;;;;;;;7.32;3.17;;;13.00;99.90;;;;;;5053658;28;20094;-68
2022/09/14 04:54:18;;;;;;;5.63;2.80;;;13.10;99.90;;;;;;5057530;28;20501;-69
2022/09/14 04:56:44;;;;;;;9.45;3.47;;;13.10;99.90;;;;;;5054411;28;20504;-67
2022/09/14 04:59:10;;;;;;;8.73;2.92;;;13.10;99.90;;;;;;5053406;28;20431;-66
2022/09/14 05:01:41;;;;;;;5.85;2.80;;;13.20;99.90;;;;;;5055885;28;20124;-67
2022/09/14 05:04:09;;;;;;;4.82;2.58;;;13.10;99.90;;;;;;5022133;28;20072;-68
2022/09/14 05:06:37;;;;;;;4.38;2.80;;;13.10;99.90;;;;;;5043806;28;20384;-67
2022/09/14 05:09:05;;;;;;;6.72;3.28;;;13.20;99.90;;;;;;5050544;28;20055;-68
2022/09/14 05:11:33;;;;;;;5.47;2.83;;;13.10;99.90;;;;;;5039362;28;20207;-67
2022/09/14 05:14:01;;;;;;;5.65;2.53;;;13.20;99.90;;;;;;5054614;28;20083;-67
2022/09/14 05:16:30;;;;;;;7.43;2.90;;;13.20;99.90;;;;;;5057807;28;20394;-68
2022/09/14 05:19:00;;;;;;;5.97;3.60;;;13.20;99.90;;;;;;5058127;28;20041;-68
2022/09/14 05:21:25;;;;;;;5.53;2.97;;;13.20;99.90;;;;;;5047258;28;20582;-69
2022/09/14 05:23:56;;;;;;;9.07;2.60;;;13.20;99.90;;;;;;5069892;28;20073;-68
2022/09/14 05:26:23;;;;;;;4.68;2.72;;;13.30;99.90;;;;;;5052178;28;20425;-68
2022/09/14 05:28:51;;;;;;;6.82;3.03;;;13.30;99.90;;;;;;5029641;28;20041;-68
2022/09/14 05:31:17;;;;;;;5.47;2.90;;;13.30;99.90;;;;;;5022004;28;20132;-68
2022/09/14 05:33:43;;;;;;;6.22;2.53;;;13.30;99.90;;;;;;5054530;28;20120;-68
2022/09/14 05:36:09;;;;;;;5.47;2.83;;;13.30;99.90;;;;;;5056989;28;20171;-68
2022/09/14 05:38:37;;;;;;;6.95;2.88;;;13.30;99.90;;;;;;5054054;28;20037;-68
2022/09/14 05:41:04;;;;;;;5.03;3.00;;;13.40;99.90;;;;;;5054481;28;20477;-68
2022/09/14 05:43:30;;;;;;;6.88;2.72;;;13.40;99.90;;;;;;5030210;28;20037;-68
2022/09/14 05:46:01;;;;;;;4.53;2.83;;;13.40;99.90;;;;;;5059469;28;20425;-68
2022/09/14 05:48:29;;;;;;;7.13;2.92;;;13.50;99.90;;;;;;5022711;28;20072;-67
2022/09/14 05:51:04;;;;;;;7.63;2.85;;;13.50;99.90;;;;;;5043250;28;20116;-69
2022/09/14 05:53:30;;;;;;;3.33;2.65;;;13.50;99.90;;;;;;5040408;28;20041;-68
2022/09/14 05:56:10;;;;;;;11.40;8.73;;;13.50;99.90;;;;;;5043926;28;20449;-69
2022/09/14 05:58:37;;;;;;;9.07;4.82;;;13.50;99.90;;;;;;5073243;28;20144;-68
2022/09/14 06:01:08;;;;;;;7.65;3.28;;;13.50;99.90;;;;;;5025404;28;20429;-69
2022/09/14 06:03:34;;;;;;;9.25;3.58;;;13.60;99.90;;;;;;5028525;28;20041;-68
2022/09/14 06:06:00;;;;;;;6.13;2.97;;;13.60;99.90;;;;;;5054238;28;20507;-68
2022/09/14 06:08:25;;;;;;;9.07;3.38;;;13.70;99.90;;;;;;5047179;28;20037;-69
2022/09/14 06:10:51;;;;;;;5.75;3.35;;;13.70;99.90;;;;;;5054313;28;20374;-67
2022/09/14 06:13:17;;;;;;;8.27;3.20;;;13.80;99.90;;;;;;5073643;28;20175;-67
2022/09/14 06:15:42;;;;;;;4.57;2.60;;;13.80;99.90;;;;;;5043351;28;20047;-67
2022/09/14 06:18:08;;;;;;;7.70;3.20;;;13.80;99.90;;;;;;5058145;28;20036;-67
2022/09/14 06:20:34;;;;;;;4.57;2.95;;;13.90;99.90;;;;;;5040713;28;20156;-66
2022/09/14 06:22:59;;;;;;;5.82;3.05;;;13.90;99.90;;;;;;5041473;28;20079;-67
2022/09/14 06:25:26;;;;;;;5.97;3.00;;;13.90;99.90;;;;;;5055523;28;20047;-67
2022/09/14 06:27:53;;;;;;;5.72;3.25;;;14.00;99.90;;;;;;5024281;28;20043;-67
2022/09/14 06:30:19;;;;;;;6.70;3.00;;;14.00;99.90;;;;;;5057953;28;20045;-67
2022/09/14 06:32:45;;;;;;;6.35;2.80;;;14.00;99.90;;;;;;5045765;28;20040;-67
2022/09/14 06:35:11;;;;;;;6.25;3.17;;;14.10;99.90;;;;;;5025839;28;20475;-67
2022/09/14 06:37:37;;;;;;;6.47;2.75;;;14.20;99.90;;;;;;5051690;28;20048;-67
2022/09/14 06:40:02;;;;;;;8.35;3.03;;;14.20;99.90;;;;;;5058358;28;20040;-67
2022/09/14 06:42:29;;;;;;;8.73;3.10;;;14.30;99.90;;;;;;5058186;28;20132;-67
2022/09/14 06:44:55;;;;;;;7.03;2.83;;;14.40;99.90;;;;;;5041015;28;20160;-68
2022/09/14 06:47:22;;;;;;;5.25;2.60;;;14.50;99.90;;;;;;5059375;28;20107;-67
2022/09/14 06:49:49;;;;;;;5.30;2.45;;;14.50;99.90;;;;;;5038999;28;20072;-68
2022/09/14 06:52:15;;;;;;;5.35;3.03;;;14.60;99.90;;;;;;5057973;28;20230;-67
2022/09/14 06:54:40;;;;;;;6.93;2.80;;;14.60;99.90;;;;;;5020348;28;20409;-67
2022/09/14 06:57:06;;;;;;;7.10;2.42;;;14.70;99.90;;;;;;5050106;28;20057;-68
2022/09/14 06:59:32;;;;;;;10.88;2.50;;;14.70;99.90;;;;;;5041920;28;20041;-68
2022/09/14 07:01:57;;;;;;;5.57;2.30;;;14.70;99.90;;;;;;5045708;28;20136;-68
2022/09/14 07:04:23;;;;;;;4.30;2.35;;;14.80;99.90;;;;;;5055831;28;20063;-68
2022/09/14 07:06:50;;;;;;;6.75;2.35;;;14.90;99.90;;;;;;5053639;28;20107;-68
2022/09/14 07:09:17;;;;;;;3.92;2.05;;;14.90;99.90;;;;;;5018079;28;20085;-69
2022/09/14 07:11:43;;;;;;;7.15;2.47;;;15.00;99.90;;;;;;5043023;28;20107;-68
2022/09/14 07:14:10;;;;;;;5.35;2.20;;;15.00;99.90;;;;;;5043064;28;20078;-68
2022/09/14 07:16:37;;;;;;;7.05;2.40;;;15.10;99.90;;;;;;5055637;28;20045;-68
2022/09/14 07:19:05;;;;;;;6.95;2.60;;;15.20;99.90;;;;;;5040427;28;20048;-68
2022/09/14 07:21:32;;;;;;;9.68;2.28;;;15.30;99.90;;;;;;5012098;28;20059;-68
2022/09/14 07:23:58;;;;;;;5.43;2.60;;;15.30;99.90;;;;;;5052486;28;20092;-68
2022/09/14 07:26:27;;;;;;;6.32;1.90;;;15.40;99.90;;;;;;5042839;28;20105;-68
2022/09/14 07:28:59;;;;;;;10.38;1.80;;;15.50;99.90;;;;;;5049307;28;20378;-68
2022/09/14 07:31:41;;;;;;;12.10;2.00;;;15.50;99.90;;;;;;5038610;28;20040;-68
2022/09/14 07:34:07;;;;;;;6.10;1.70;;;15.60;99.90;;;;;;5024426;28;20045;-68
2022/09/14 07:36:34;;;;;;;4.50;1.60;;;15.60;99.90;;;;;;5055889;28;20056;-68
2022/09/14 07:39:00;;;;;;;5.55;1.60;;;15.60;99.90;;;;;;5055101;28;20076;-69
2022/09/14 07:41:29;;;;;;;4.65;1.80;;;15.70;99.90;;;;;;5052705;28;20049;-68
2022/09/14 07:43:58;;;;;;;3.30;1.23;;;15.80;99.90;;;;;;5051864;28;20064;-68
2022/09/14 07:46:25;;;;;;;6.18;1.67;;;15.80;99.90;;;;;;5056397;28;20111;-69
2022/09/14 07:48:56;;;;;;;4.95;1.42;;;16.00;99.90;;;;;;5031813;28;20029;-68
2022/09/14 07:51:22;;;;;;;5.82;1.40;;;16.10;99.90;;;;;;5055125;28;20053;-68
2022/09/14 07:53:48;;;;;;;2.92;0.95;;;16.10;99.90;;;;;;5017371;28;20099;-68
2022/09/14 07:56:15;;;;;;;3.80;1.38;;;16.20;99.90;;;;;;5053977;28;20444;-68
2022/09/14 07:58:41;;;;;;;5.20;1.33;;;16.20;99.90;;;;;;5037728;28;20428;-68
2022/09/14 08:01:14;;;;;;;7.40;1.58;;;16.20;99.90;;;;;;5055964;28;20189;-68
2022/09/14 08:03:42;;;;;;;6.63;1.42;;;16.30;99.90;;;;;;5016551;28;20074;-68
2022/09/14 08:06:14;;;;;;;6.95;1.73;;;16.40;99.90;;;;;;5016561;28;20046;-69
2022/09/14 08:08:41;;;;;;;5.65;1.52;;;16.50;99.90;;;;;;5016893;28;20559;-69
2022/09/14 08:11:21;;;;;;;4.63;1.42;;;16.50;99.90;;;;;;5050585;28;20393;-68
2022/09/14 08:14:09;;;;;;;5.97;1.77;;;16.60;99.90;;;;;;5051794;28;20069;-69
2022/09/14 08:16:35;;;;;;;5.68;1.48;;;16.80;99.90;;;;;;5052399;28;20058;-69
2022/09/14 08:19:03;;;;;;;6.22;1.50;;;16.90;99.90;;;;;;5016048;28;20049;-69
2022/09/14 08:21:30;;;;;;;7.30;1.50;;;16.90;99.90;;;;;;5051786;28;20056;-69
2022/09/14 08:23:57;;;;;;;6.35;1.73;;;17.00;99.90;;;;;;5052706;28;20413;-69
2022/09/14 08:26:25;;;;;;;6.40;1.23;;;17.10;99.90;;;;;;5052260;28;20069;-66
2022/09/14 08:28:52;;;;;;;4.68;1.33;;;17.30;99.90;;;;;;5035983;28;20635;-66
2022/09/14 08:31:21;;;;;;;3.70;1.15;;;17.40;99.90;;;;;;5032365;28;20056;-66
2022/09/14 08:33:59;;;;;;;4.25;1.17;;;17.60;99.90;;;;;;5046473;28;20069;-67
2022/09/14 08:36:27;;;;;;;4.80;1.80;;;17.70;99.90;;;;;;5021382;28;20522;-67
2022/09/14 08:38:52;;;;;;;2.78;0.90;;;18.00;99.90;;;;;;5016341;28;20414;-69
2022/09/14 08:41:33;;;;;;;7.53;1.38;;;18.30;99.90;;;;;;5051190;28;20047;-69
2022/09/14 08:44:22;;;;;;;2.70;0.95;;;18.50;99.90;;;;;;5052326;28;20049;-69
2022/09/14 08:46:53;;;;;;;7.53;1.35;;;18.70;99.90;;;;;;5020738;28;20441;-69
2022/09/14 08:49:25;;;;;;;5.32;0.80;;;18.70;99.90;;;;;;5055462;28;20048;-69
2022/09/14 08:51:51;;;;;;;5.05;1.13;;;18.80;99.90;;;;;;5023213;28;20470;-69
2022/09/14 08:54:17;;;;;;;5.10;0.77;;;18.80;99.90;;;;;;5058575;28;20477;-68
2022/09/14 08:56:47;;;;;;;3.20;1.65;;;18.80;99.90;;;;;;5052151;28;20062;-69
2022/09/14 08:59:34;;;;;;;6.15;0.77;;;18.80;99.90;;;;;;5054432;28;20093;-69
2022/09/14 09:02:32;;;;;;;5.50;0.80;;;18.80;99.90;;;;;;5053104;28;20458;-69
2022/09/14 09:05:35;;;;;;;7.20;0.80;;;18.80;99.90;;;;;;5016900;28;20053;-69
2022/09/14 09:08:25;;;;;;;2.45;0.55;;;18.80;99.90;;;;;;5024480;28;20053;-68
2022/09/14 09:10:53;;;;;;;2.75;0.40;;;18.80;99.90;;;;;;5020506;28;20053;-69
2022/09/14 09:13:24;;;;;;;5.22;0.45;;;18.80;99.90;;;;;;5058149;28;20057;-69
2022/09/14 09:15:57;;;;;;;3.25;0.40;;;18.80;99.90;;;;;;5053273;28;20124;-69
2022/09/14 09:18:25;;;;;;;4.30;0.60;;;18.70;99.90;;;;;;5024197;28;20040;-68
2022/09/14 09:20:57;;;;;;;6.85;0.60;;;18.80;99.90;;;;;;5020816;28;20539;-69
2022/09/14 09:23:26;;;;;;;7.95;1.80;;;19.00;99.90;;;;;;5020643;28;20041;-68
2022/09/14 09:25:55;;;;;;;1.83;0.30;;;19.10;99.90;;;;;;5021603;28;20081;-68
2022/09/14 09:28:24;;;;;;;1.98;0.55;;;19.30;99.90;;;;;;5017374;28;20038;-69
2022/09/14 09:30:51;;;;;;;3.60;0.73;;;19.50;99.90;;;;;;5024581;28;20092;-69
2022/09/14 09:33:22;;;;;;;4.50;0.50;;;20.00;99.90;;;;;;5018715;28;20033;-69
2022/09/14 09:35:50;;;;;;;6.57;0.60;;;20.60;99.90;;;;;;5020256;28;20488;-69
2022/09/14 09:38:18;;;;;;;4.90;0.40;;;21.00;99.90;;;;;;5052483;28;20041;-66
2022/09/14 09:40:55;;;;;;;4.18;0.60;;;21.40;99.90;;;;;;5053265;28;20037;-66
2022/09/14 09:43:21;;;;;;;5.65;0.80;;;21.50;99.90;;;;;;5053700;28;20041;-67
2022/09/14 09:45:57;;;;;;;5.90;0.60;;;22.00;99.90;;;;;;5047772;28;20655;-66
2022/09/14 09:48:31;;;;;;;3.42;0.40;;;22.40;99.90;;;;;;5016521;28;20524;-67
2022/09/14 09:51:08;;;;;;;4.00;0.70;;;22.00;97.80;;;;;;5049339;28;20123;-67
2022/09/14 09:53:38;;;;;;;7.13;0.50;;;21.70;98.80;;;;;;5047936;28;20509;-67
2022/09/14 09:56:04;;;;;;;5.68;0.50;;;21.60;99.70;;;;;;5047205;28;20040;-66
2022/09/14 09:58:37;;;;;;;6.50;0.90;;;21.50;99.40;;;;;;5048307;28;20038;-67
2022/09/14 10:01:17;;;;;;;4.93;0.50;;;21.30;99.10;;;;;;5048602;28;20049;-68
2022/09/14 10:03:58;;;;;;;4.45;0.57;;;21.20;99.70;;;;;;5015577;28;20044;-67
2022/09/14 10:06:24;;;;;;;5.93;0.55;;;21.00;98.80;;;;;;5051748;28;20225;-67
2022/09/14 10:08:50;;;;;;;3.72;0.95;;;20.80;99.50;;;;;;5054136;28;20045;-68
2022/09/14 10:11:36;;;;;;;3.15;0.47;;;20.70;99.40;;;;;;5053400;28;20097;-67
2022/09/14 10:14:04;;;;;;;3.78;0.30;;;20.60;99.30;;;;;;5051899;28;20045;-67
2022/09/14 10:16:37;;;;;;;2.25;0.38;;;20.50;97.80;;;;;;5056482;28;20050;-68
2022/09/14 10:19:19;;;;;;;2.25;0.30;;;20.60;98.00;;;;;;5023929;28;20120;-68
2022/09/14 10:22:13;;;;;;;6.32;0.57;;;21.50;98.70;;;;;;5015337;28;20053;-68
2022/09/14 10:24:39;;;;;;;5.03;0.50;;;23.00;96.30;;;;;;5048202;28;20510;-68
2022/09/14 10:27:30;;;;;;;4.75;0.50;;;24.10;94.90;;;;;;5016599;28;20041;-69
2022/09/14 10:29:59;;;;;;;3.95;0.40;;;24.90;84.10;;;;;;5038578;28;20068;-68
2022/09/14 10:32:25;;;;;;;4.15;0.30;;;25.20;85.90;;;;;;5021552;28;20402;-68
2022/09/14 10:34:51;;;;;;;2.80;0.32;;;24.90;78.30;;;;;;5025190;28;20626;-67
2022/09/14 10:37:42;;;;;;;3.78;0.40;;;24.20;78.80;;;;;;5024738;28;20169;-68
2022/09/14 10:40:17;;;;;;;3.90;0.65;;;23.50;79.50;;;;;;5020071;28;20056;-67
2022/09/14 10:43:20;;;;;;;3.78;0.60;;;22.90;84.20;;;;;;5047806;28;20081;-67
2022/09/14 10:45:57;;;;;;;3.88;0.40;;;22.50;82.60;;;;;;5017354;28;20107;-67
2022/09/14 10:48:32;;;;;;;5.82;1.05;;;22.00;83.00;;;;;;5050746;28;20050;-68
2022/09/14 10:51:28;;;;;;;4.38;0.50;;;21.70;86.10;;;;;;5019133;28;20056;-67
2022/09/14 10:54:25;;;;;;;5.13;0.70;;;21.50;88.80;;;;;;5018073;28;20096;-67
2022/09/14 10:57:29;;;;;;;5.72;0.63;;;21.20;89.90;;;;;;5020201;28;20117;-68
2022/09/14 11:00:12;;;;;;;4.60;0.53;;;21.30;90.70;;;;;;5021377;28;20116;-67
2022/09/14 11:03:00;;;;;;;4.35;0.43;;;22.10;89.20;;;;;;5042406;28;20469;-68
2022/09/14 11:05:40;;;;;;;1.95;0.30;;;23.10;85.50;;;;;;5020405;28;20071;-68
2022/09/14 11:08:30;;;;;;;3.97;0.40;;;23.80;82.10;;;;;;5053507;28;20146;-68
2022/09/14 11:11:26;;;;;;;3.17;0.43;;;24.30;75.70;;;;;;5042890;28;20520;-68
2022/09/14 11:14:01;;;;;;;2.08;0.38;;;24.00;74.40;;;;;;5059597;28;20036;-68
2022/09/14 11:16:56;;;;;;;2.50;0.35;;;23.60;76.40;;;;;;5046705;28;20471;-68
2022/09/14 11:19:41;;;;;;;2.72;0.60;;;23.30;79.50;;;;;;5037277;28;20393;-68
2022/09/14 11:22:39;;;;;;;3.38;0.40;;;23.20;76.50;;;;;;5040036;28;20053;-67
2022/09/14 11:25:15;;;;;;;4.22;0.40;;;23.10;78.00;;;;;;5040791;28;20416;-67
2022/09/14 11:27:53;;;;;;;5.75;0.68;;;22.90;76.90;;;;;;5019529;28;20057;-67
2022/09/14 11:30:49;;;;;;;4.43;0.50;;;22.80;77.30;;;;;;5032859;28;20033;-67
2022/09/14 11:33:27;;;;;;;4.07;0.70;;;22.50;77.80;;;;;;5018185;28;20045;-68
2022/09/14 11:36:15;;;;;;;2.95;0.57;;;22.50;81.40;;;;;;5021613;28;20052;-68
2022/09/14 11:39:05;;;;;;;3.05;0.45;;;22.80;81.10;;;;;;5054078;28;20053;-68
2022/09/14 11:41:43;;;;;;;4.32;0.50;;;23.60;79.60;;;;;;5023393;28;20190;-67
2022/09/14 11:44:32;;;;;;;3.75;0.57;;;24.30;78.30;;;;;;5037883;28;20110;-68
2022/09/14 11:47:02;;;;;;;5.82;1.00;;;24.70;73.30;;;;;;5039171;28;20069;-68
2022/09/14 11:49:56;;;;;;;2.42;0.50;;;25.40;71.40;;;;;;5051466;28;20041;-67
2022/09/14 11:52:28;;;;;;;4.03;0.50;;;25.60;69.40;;;;;;5018280;28;20149;-68
2022/09/14 11:54:55;;;;;;;2.42;0.50;;;25.80;70.40;;;;;;5051449;28;20041;-68
2022/09/14 11:57:27;;;;;;;3.72;0.60;;;26.30;70.40;;;;;;5016703;28;20060;-68
2022/09/14 11:59:55;;;;;;;2.13;0.50;;;27.20;66.40;;;;;;5039053;28;20044;-68
2022/09/14 12:02:25;;;;;;;4.65;0.80;;;27.80;65.30;;;;;;5052265;28;20053;-68
2022/09/14 12:05:06;;;;;;;4.05;0.50;;;28.10;65.90;;;;;;5055993;28;20048;-67
2022/09/14 12:07:41;;;;;;;3.47;0.70;;;28.20;58.80;;;;;;5033605;28;20142;-67
2022/09/14 12:10:13;;;;;;;3.13;0.57;;;27.30;59.80;;;;;;5019343;28;20076;-68
2022/09/14 12:12:47;;;;;;;2.88;0.45;;;26.30;61.10;;;;;;5031106;28;20029;-68
2022/09/14 12:15:32;;;;;;;3.30;0.50;;;25.70;61.30;;;;;;5021547;28;20047;-68
2022/09/14 12:18:06;;;;;;;3.40;0.50;;;25.10;64.20;;;;;;5032292;28;20045;-68
2022/09/14 12:20:36;;;;;;;3.70;0.40;;;24.50;63.90;;;;;;5041817;28;20374;-68
2022/09/14 12:23:25;;;;;;;4.60;0.50;;;24.00;64.10;;;;;;5055405;28;20128;-68
2022/09/14 12:26:08;;;;;;;4.85;0.63;;;23.50;64.80;;;;;;5037422;28;20107;-67
2022/09/14 12:28:34;;;;;;;2.85;0.43;;;23.00;66.80;;;;;;5036998;28;20117;-68
2022/09/14 12:31:03;;;;;;;4.07;0.40;;;22.70;68.60;;;;;;5055795;28;20116;-67
2022/09/14 12:33:31;;;;;;;2.10;0.40;;;22.60;69.90;;;;;;5055007;28;20040;-68
2022/09/14 12:36:04;;;;;;;2.40;0.63;;;22.40;70.90;;;;;;5059259;28;20103;-67
2022/09/14 12:38:30;;;;;;;3.00;0.43;;;22.30;71.40;;;;;;5069361;28;20489;-67
2022/09/14 12:41:13;;;;;;;3.38;0.40;;;22.20;72.80;;;;;;5054902;28;20084;-67
2022/09/14 12:43:48;;;;;;;5.78;0.70;;;22.20;73.00;;;;;;5023616;28;20176;-67
2022/09/14 12:46:20;;;;;;;4.88;0.68;;;22.10;73.20;;;;;;5023354;28;20444;-67
2022/09/14 12:51:35;;;;;;;2.92;0.43;;;22.00;75.30;;;;;;5042808;28;20171;-67
2022/09/14 12:54:07;;;;;;;4.00;0.52;;;22.50;75.60;;;;;;5019703;28;20051;-67
2022/09/14 12:56:36;;;;;;;7.63;0.60;;;23.60;74.10;;;;;;5074225;28;20038;-67
2022/09/14 12:59:20;;;;;;;6.07;0.70;;;24.40;70.20;;;;;;5022253;28;20378;-67
2022/09/14 13:02:19;;;;;;;4.43;0.90;;;24.60;65.80;;;;;;5023017;28;20084;-68
2022/09/14 13:04:46;;;;;;;5.97;0.60;;;24.20;68.00;;;;;;5052454;28;20041;-68
2022/09/14 13:07:18;;;;;;;4.68;0.80;;;23.60;68.50;;;;;;5054786;28;20064;-67
2022/09/14 13:09:55;;;;;;;1.88;0.40;;;23.30;68.80;;;;;;5051257;28;20552;-67
2022/09/14 13:12:37;;;;;;;3.30;0.47;;;23.10;69.50;;;;;;5020973;28;20159;-68
2022/09/14 13:15:19;;;;;;;5.65;0.75;;;22.80;71.30;;;;;;5048852;28;20530;-67
2022/09/14 13:18:02;;;;;;;4.40;0.50;;;22.50;71.40;;;;;;5049383;28;20049;-67